Time;durP1;ratioP1;P1;durP2;ratioP2;P2;SDS_P1;SDS_P2;PMS_P1;PMS_P2;Temp;Humidity;BMP_temperature;BMP_pressure;BME280_temperature;BME280_humidity;BME280_pressure;Samples;Min_cycle;Max_cycle;Signal;HPM_P1;HPM_P2
2023/10/10 00:01:46;;;;;;;10.73;2.88;;;21.50;65.80;;;;;;5063111;28;20542;-84
2023/10/10 00:04:19;;;;;;;7.38;2.20;;;21.50;66.10;;;;;;5059488;28;20036;-82
2023/10/10 00:06:49;;;;;;;9.55;1.90;;;21.60;66.10;;;;;;5068855;28;20013;-80
2023/10/10 00:09:16;;;;;;;11.45;2.40;;;21.60;65.70;;;;;;5063354;28;20068;-81
2023/10/10 00:11:45;;;;;;;6.25;2.28;;;21.60;66.00;;;;;;5077047;28;20033;-80
2023/10/10 00:14:19;;;;;;;12.63;2.63;;;21.70;65.80;;;;;;5057284;28;20590;-80
2023/10/10 00:16:54;;;;;;;5.57;2.28;;;21.70;65.70;;;;;;5058420;28;20037;-80
2023/10/10 00:19:32;;;;;;;6.57;2.10;;;21.80;65.60;;;;;;5071153;28;20395;-85
2023/10/10 00:22:03;;;;;;;8.63;2.63;;;22.10;65.50;;;;;;5060622;28;20041;-80
2023/10/10 00:24:33;;;;;;;7.30;2.10;;;22.20;64.00;;;;;;5061944;28;20111;-82
2023/10/10 00:27:35;;;;;;;7.43;2.20;;;22.30;63.50;;;;;;5059065;28;20032;-81
2023/10/10 00:29:55;;;;;;;8.05;2.30;;;22.40;62.70;;;;;;5054050;28;20365;-78
2023/10/10 00:32:26;;;;;;;7.22;2.05;;;22.60;62.40;;;;;;5070035;28;20446;-79
2023/10/10 00:34:55;;;;;;;9.40;2.33;;;22.50;62.70;;;;;;5073985;28;20099;-80
2023/10/10 00:37:34;;;;;;;6.88;2.08;;;22.50;62.20;;;;;;5068208;28;20029;-82
2023/10/10 00:40:09;;;;;;;5.55;1.88;;;22.40;62.00;;;;;;5065104;28;20044;-79
2023/10/10 00:42:38;;;;;;;5.15;2.00;;;22.30;62.10;;;;;;5067760;28;20036;-81
2023/10/10 00:45:09;;;;;;;6.18;2.20;;;22.30;62.30;;;;;;5073157;28;20064;-83
2023/10/10 00:47:48;;;;;;;4.97;1.90;;;22.50;62.10;;;;;;5066406;28;20051;-79
2023/10/10 00:50:18;;;;;;;7.63;2.08;;;22.80;61.70;;;;;;5066292;28;20108;-79
2023/10/10 00:52:55;;;;;;;6.88;2.10;;;22.80;60.70;;;;;;5052892;28;20564;-78
2023/10/10 00:55:25;;;;;;;6.70;2.28;;;23.00;60.50;;;;;;5055129;28;20027;-80
2023/10/10 00:57:55;;;;;;;7.72;1.90;;;23.00;60.30;;;;;;5053988;28;20033;-79
2023/10/10 01:00:29;;;;;;;7.15;2.22;;;23.00;59.70;;;;;;5056388;28;20055;-80
2023/10/10 01:03:39;;;;;;;4.70;2.03;;;22.90;59.60;;;;;;5063693;28;20081;-80
2023/10/10 01:05:55;;;;;;;9.52;2.05;;;22.90;59.80;;;;;;5045383;28;20075;-80
2023/10/10 01:08:30;;;;;;;7.13;2.42;;;22.90;59.40;;;;;;5053788;28;20361;-80
2023/10/10 01:11:03;;;;;;;8.15;2.10;;;22.90;59.80;;;;;;5069652;28;20017;-79
2023/10/10 01:13:30;;;;;;;7.05;1.75;;;22.90;59.90;;;;;;5065936;28;20020;-78
2023/10/10 01:16:04;;;;;;;5.80;2.10;;;22.90;59.90;;;;;;5068855;28;20078;-81
2023/10/10 01:18:39;;;;;;;3.55;1.70;;;23.00;60.00;;;;;;5053135;28;20043;-86
2023/10/10 01:21:09;;;;;;;7.57;1.85;;;23.20;59.40;;;;;;5069479;28;20352;-88
2023/10/10 01:23:37;;;;;;;6.95;1.83;;;23.20;58.90;;;;;;5064540;28;20120;-79
2023/10/10 01:26:09;;;;;;;7.38;2.28;;;23.20;58.40;;;;;;5073605;28;20035;-82
2023/10/10 01:28:36;;;;;;;5.47;1.63;;;23.30;58.80;;;;;;5064543;28;20029;-80
2023/10/10 01:31:04;;;;;;;7.55;2.17;;;23.40;58.80;;;;;;5054083;28;20032;-78
2023/10/10 01:33:36;;;;;;;4.75;1.90;;;23.50;58.50;;;;;;5057763;28;20037;-78
2023/10/10 01:36:18;;;;;;;4.72;1.80;;;23.40;58.00;;;;;;5071668;28;20021;-79
2023/10/10 01:39:02;;;;;;;4.90;1.60;;;23.50;58.20;;;;;;5067448;28;20033;-78
2023/10/10 01:41:38;;;;;;;6.82;1.52;;;23.60;57.70;;;;;;5071868;28;20021;-79
2023/10/10 01:44:18;;;;;;;4.80;1.70;;;23.70;57.40;;;;;;5060308;28;20036;-79
2023/10/10 01:46:46;;;;;;;5.80;2.20;;;23.70;57.70;;;;;;5062465;28;20063;-79
2023/10/10 01:49:19;;;;;;;9.77;2.13;;;23.80;57.40;;;;;;5060166;28;20048;-81
2023/10/10 01:51:53;;;;;;;5.07;1.40;;;23.90;56.90;;;;;;5076105;28;20039;-79
2023/10/10 01:54:21;;;;;;;5.63;1.52;;;24.00;56.30;;;;;;5069550;28;20025;-80
2023/10/10 01:56:54;;;;;;;6.93;2.22;;;23.90;56.00;;;;;;5054131;28;20083;-83
2023/10/10 01:59:25;;;;;;;7.60;2.08;;;23.80;56.00;;;;;;5059020;28;20364;-84
2023/10/10 02:01:54;;;;;;;5.95;1.73;;;23.80;56.50;;;;;;5082420;28;20032;-83
2023/10/10 02:04:21;;;;;;;8.82;1.90;;;23.60;56.50;;;;;;5059337;28;20029;-80
2023/10/10 02:06:58;;;;;;;8.52;1.60;;;23.50;56.90;;;;;;5061386;28;20111;-80
2023/10/10 02:12:04;;;;;;;4.53;1.38;;;23.80;56.70;;;;;;5058912;28;20025;-80
2023/10/10 02:14:31;;;;;;;7.65;1.60;;;24.00;56.00;;;;;;5073318;28;20501;-80
2023/10/10 02:17:07;;;;;;;8.68;2.10;;;24.00;55.50;;;;;;5066999;28;20085;-79
2023/10/10 02:19:39;;;;;;;;;;;23.80;55.10;;;;;;5053290;28;20027;-79
2023/10/10 02:22:22;;;;;;;7.15;2.00;;;23.60;55.60;;;;;;5063694;28;19916;-80
2023/10/10 02:25:08;;;;;;;4.25;1.90;;;23.50;56.00;;;;;;5052622;28;20035;-80
2023/10/10 02:27:47;;;;;;;;;;;23.40;56.20;;;;;;5063274;28;20028;-82
2023/10/10 02:30:22;;;;;;;6.00;1.58;;;23.40;57.00;;;;;;5057885;28;20402;-83
2023/10/10 02:32:49;;;;;;;5.77;1.80;;;23.60;57.00;;;;;;5062144;28;20025;-83
2023/10/10 02:35:26;;;;;;;3.72;1.50;;;23.70;56.30;;;;;;5063515;28;20355;-82
2023/10/10 02:37:55;;;;;;;5.68;1.50;;;23.50;56.30;;;;;;5070567;28;20082;-78
2023/10/10 02:40:30;;;;;;;10.25;1.98;;;23.50;56.20;;;;;;5071654;28;20519;-79
2023/10/10 02:45:45;;;;;;;9.32;1.70;;;23.50;56.70;;;;;;5068380;28;20437;-79
2023/10/10 02:48:20;;;;;;;6.43;1.83;;;23.70;56.50;;;;;;5070350;28;20032;-79
2023/10/10 02:50:51;;;;;;;;;;;23.70;56.00;;;;;;5064400;28;20024;-78
2023/10/10 02:53:19;;;;;;;5.47;1.70;;;23.60;55.90;;;;;;5065653;28;19920;-78
2023/10/10 02:55:52;;;;;;;5.03;1.80;;;23.70;56.20;;;;;;5062081;28;20074;-80
2023/10/10 02:58:27;;;;;;;5.78;1.58;;;23.70;55.80;;;;;;5062315;28;20028;-80
2023/10/10 03:00:58;;;;;;;3.72;1.50;;;23.70;55.70;;;;;;5059678;28;20025;-78
2023/10/10 03:03:26;;;;;;;6.40;1.75;;;23.70;55.80;;;;;;5064899;28;20321;-80
2023/10/10 03:06:06;;;;;;;5.22;1.65;;;23.80;55.90;;;;;;5068592;28;20021;-80
2023/10/10 03:11:35;;;;;;;3.45;1.58;;;24.20;55.10;;;;;;5064899;28;20024;-81
2023/10/10 03:14:07;;;;;;;5.57;1.70;;;24.30;54.80;;;;;;5059123;28;20029;-78
2023/10/10 03:16:44;;;;;;;7.53;1.67;;;24.20;54.60;;;;;;5065184;28;20106;-81
2023/10/10 03:19:13;;;;;;;5.00;1.40;;;24.30;54.50;;;;;;5070608;28;20024;-82
2023/10/10 03:27:36;;;;;;;6.47;1.50;;;24.60;53.40;;;;;;5072248;28;20025;-78
2023/10/10 03:29:49;;;;;;;4.95;1.63;;;24.50;53.50;;;;;;5074136;28;20060;-80
2023/10/10 03:34:56;;;;;;;4.68;1.58;;;24.40;54.00;;;;;;5072361;28;20107;-82
2023/10/10 03:40:09;;;;;;;8.35;1.80;;;24.30;53.50;;;;;;5067398;28;20045;-79
2023/10/10 05:24:43;;;;;;;6.25;1.70;;;23.70;54.40;;;;;;5068853;28;20467;-82
2023/10/10 05:27:13;;;;;;;6.95;1.45;;;23.60;55.00;;;;;;5065188;28;20024;-80
2023/10/10 05:29:43;;;;;;;5.95;1.63;;;23.50;55.10;;;;;;5065323;28;20082;-83
2023/10/10 05:32:11;;;;;;;6.63;1.90;;;23.30;55.10;;;;;;5067457;28;20033;-85
2023/10/10 05:34:41;;;;;;;4.15;1.40;;;23.20;55.30;;;;;;5065836;28;20080;-85
2023/10/10 05:37:08;;;;;;;4.03;1.50;;;23.10;55.30;;;;;;5068212;28;20411;-83
2023/10/10 05:39:37;;;;;;;5.30;1.40;;;23.10;55.70;;;;;;5062647;28;20048;-84
2023/10/10 05:42:04;;;;;;;5.28;1.35;;;23.10;56.00;;;;;;5065985;28;20420;-80
2023/10/10 05:44:33;;;;;;;4.72;1.95;;;23.00;56.00;;;;;;5064842;28;20380;-81
2023/10/10 05:47:06;;;;;;;5.85;1.55;;;22.80;56.10;;;;;;5065036;28;20056;-84
2023/10/10 05:49:40;;;;;;;4.30;1.33;;;22.80;56.40;;;;;;5061328;28;20029;-81
2023/10/10 05:52:07;;;;;;;2.80;1.40;;;22.70;57.10;;;;;;5062167;28;20039;-83
2023/10/10 05:54:35;;;;;;;3.33;1.30;;;22.70;57.40;;;;;;5073204;28;20379;-80
2023/10/10 05:57:03;;;;;;;5.53;1.55;;;22.80;57.10;;;;;;5060008;28;20613;-83
2023/10/10 05:59:31;;;;;;;5.00;1.33;;;22.80;57.00;;;;;;5069140;28;20356;-84
2023/10/10 06:01:59;;;;;;;5.28;1.63;;;22.70;56.90;;;;;;5067967;28;20087;-79
2023/10/10 06:04:28;;;;;;;4.90;1.52;;;22.80;57.50;;;;;;5068893;28;20029;-82
2023/10/10 06:06:55;;;;;;;6.85;1.40;;;22.80;57.30;;;;;;5052606;28;20016;-79
2023/10/10 06:09:26;;;;;;;3.85;1.38;;;22.80;57.10;;;;;;5068743;28;20436;-79
2023/10/10 06:11:54;;;;;;;7.65;1.60;;;22.70;57.20;;;;;;5072726;28;20025;-81
2023/10/10 06:14:21;;;;;;;4.63;1.50;;;22.50;57.50;;;;;;5062981;28;20037;-79
2023/10/10 06:16:49;;;;;;;6.80;1.77;;;22.40;57.90;;;;;;5063583;28;20062;-79
2023/10/10 06:19:20;;;;;;;6.30;1.30;;;22.50;58.10;;;;;;5067659;28;20039;-80
2023/10/10 06:21:51;;;;;;;6.97;1.55;;;22.40;57.80;;;;;;5073774;28;20033;-80
2023/10/10 06:24:22;;;;;;;4.80;1.77;;;22.30;57.70;;;;;;5079302;28;20447;-79
2023/10/10 06:26:50;;;;;;;7.28;1.80;;;22.20;57.80;;;;;;5072335;28;20437;-79
2023/10/10 06:29:18;;;;;;;6.28;2.28;;;22.10;58.00;;;;;;5071834;28;20033;-78
2023/10/10 06:31:45;;;;;;;4.25;1.70;;;22.00;58.10;;;;;;5086701;28;20032;-78
2023/10/10 06:34:22;;;;;;;5.43;1.50;;;21.90;58.50;;;;;;5069688;28;20013;-78
2023/10/10 06:36:51;;;;;;;7.45;2.03;;;21.90;58.60;;;;;;5073160;28;20032;-78
2023/10/10 06:39:18;;;;;;;5.30;1.85;;;21.80;58.50;;;;;;5073331;28;20041;-81
2023/10/10 06:41:54;;;;;;;6.15;1.60;;;21.70;59.00;;;;;;5073703;28;20091;-83
2023/10/10 06:44:35;;;;;;;8.18;2.20;;;21.70;59.00;;;;;;5073851;28;20032;-81
2023/10/10 06:47:08;;;;;;;5.13;1.52;;;21.70;59.10;;;;;;5072103;28;20064;-80
2023/10/10 06:52:36;;;;;;;8.55;2.08;;;21.70;58.90;;;;;;5050980;28;20571;-78
2023/10/10 06:55:21;;;;;;;5.05;1.58;;;21.60;58.80;;;;;;5061547;28;20494;-83
2023/10/10 06:57:57;;;;;;;3.20;1.60;;;21.50;58.80;;;;;;5060167;28;20044;-82
2023/10/10 07:03:18;;;;;;;7.68;1.80;;;21.30;59.10;;;;;;5065527;28;20067;-79
2023/10/10 07:05:48;;;;;;;5.97;1.75;;;21.30;58.60;;;;;;5056033;28;20024;-80
2023/10/10 07:08:34;;;;;;;7.70;1.80;;;21.30;58.60;;;;;;5057338;28;20097;-83
2023/10/10 07:11:02;;;;;;;3.97;1.63;;;21.30;58.60;;;;;;5056630;28;20020;-86
2023/10/10 07:13:35;;;;;;;6.20;1.77;;;21.20;59.10;;;;;;5069539;28;20110;-79
2023/10/10 07:16:03;;;;;;;4.75;1.65;;;21.30;59.20;;;;;;5067154;28;20021;-84
2023/10/10 07:18:32;;;;;;;5.95;1.80;;;21.20;59.50;;;;;;5072112;28;20028;-81
2023/10/10 07:22:00;;;;;;;3.85;1.50;;;21.20;59.50;;;;;;5069074;28;20396;-85
2023/10/10 07:24:13;;;;;;;6.20;2.10;;;21.10;59.70;;;;;;5067306;28;20056;-82
2023/10/10 07:26:41;;;;;;;10.82;2.10;;;21.10;59.80;;;;;;5071980;28;20099;-80
2023/10/10 07:29:57;;;;;;;6.00;1.85;;;21.00;59.80;;;;;;5066421;28;20016;-84
2023/10/10 07:32:27;;;;;;;3.28;1.88;;;21.00;60.00;;;;;;5070988;28;20040;-82
2023/10/10 07:34:55;;;;;;;6.03;1.90;;;20.80;60.00;;;;;;5068226;28;20120;-81
2023/10/10 07:37:23;;;;;;;5.20;1.85;;;20.80;60.10;;;;;;5073595;28;20091;-80
2023/10/10 07:42:29;;;;;;;4.82;1.70;;;20.80;60.60;;;;;;5073688;28;20480;-80
2023/10/10 07:44:58;;;;;;;7.60;2.13;;;20.80;60.50;;;;;;5069671;28;20029;-85
2023/10/10 07:47:27;;;;;;;4.63;1.90;;;20.80;60.60;;;;;;5074231;28;20056;-81
2023/10/10 07:49:55;;;;;;;9.68;1.95;;;20.80;60.70;;;;;;5072474;28;20072;-87
2023/10/10 07:52:22;;;;;;;6.68;1.65;;;20.70;60.70;;;;;;5074311;28;20033;-81
2023/10/10 07:55:04;;;;;;;7.72;2.17;;;20.70;60.90;;;;;;5070468;28;20070;-86
2023/10/10 07:57:55;;;;;;;4.88;1.75;;;20.50;61.10;;;;;;5057588;28;20044;-83
2023/10/10 08:00:24;;;;;;;8.00;2.17;;;20.50;61.30;;;;;;5060594;28;20383;-82
2023/10/10 08:02:53;;;;;;;11.02;2.25;;;20.50;61.90;;;;;;5055860;28;20040;-88
2023/10/10 08:05:23;;;;;;;6.20;2.10;;;20.50;62.30;;;;;;5061837;28;20029;-85
2023/10/10 08:07:50;;;;;;;7.90;2.35;;;20.50;62.80;;;;;;5059891;28;20024;-87
2023/10/10 08:10:38;;;;;;;7.43;2.38;;;20.40;63.30;;;;;;5067641;28;20509;-87
2023/10/10 08:13:12;;;;;;;5.65;2.20;;;20.40;64.00;;;;;;5073683;28;20130;-82
2023/10/10 08:21:09;;;;;;;5.10;2.33;;;20.20;64.10;;;;;;5059919;28;20092;-86
2023/10/10 08:23:42;;;;;;;6.88;2.10;;;20.20;64.70;;;;;;5063403;28;20038;-88
2023/10/10 08:26:17;;;;;;;7.28;2.55;;;20.20;64.90;;;;;;5070070;28;20032;-86
2023/10/10 08:28:52;;;;;;;10.82;2.38;;;20.20;64.80;;;;;;5074551;28;20079;-85
2023/10/10 08:31:20;;;;;;;5.45;2.42;;;20.20;65.00;;;;;;5068836;28;20074;-87
2023/10/10 08:33:49;;;;;;;6.63;2.15;;;20.10;65.30;;;;;;5075102;28;20025;-85
2023/10/10 08:36:24;;;;;;;10.48;2.85;;;20.10;65.30;;;;;;5074160;28;20031;-84
2023/10/10 08:38:53;;;;;;;10.95;3.25;;;20.00;65.30;;;;;;5075614;28;20063;-87
2023/10/10 08:41:28;;;;;;;11.15;3.45;;;20.00;65.90;;;;;;5084479;28;20734;-85
2023/10/10 08:44:01;;;;;;;6.33;2.47;;;20.00;66.10;;;;;;5069697;28;20045;-86
2023/10/10 08:46:40;;;;;;;5.93;2.30;;;20.00;66.20;;;;;;5069982;28;20056;-85
2023/10/10 08:49:10;;;;;;;8.75;2.85;;;20.00;66.20;;;;;;5079530;28;20040;-86
2023/10/10 08:51:39;;;;;;;9.48;2.55;;;19.90;66.20;;;;;;5070456;28;20134;-86
2023/10/10 08:54:12;;;;;;;9.02;2.20;;;19.90;66.60;;;;;;5071742;28;20033;-84
2023/10/10 08:56:43;;;;;;;6.80;2.67;;;19.90;66.70;;;;;;5076826;28;20111;-86
2023/10/10 08:59:11;;;;;;;4.60;2.47;;;19.90;66.70;;;;;;5075258;28;20032;-87
2023/10/10 09:01:45;;;;;;;8.52;2.67;;;19.90;66.60;;;;;;5076305;28;20028;-84
2023/10/10 09:04:17;;;;;;;11.15;3.35;;;19.80;66.60;;;;;;5079536;28;20025;-86
2023/10/10 09:10:04;;;;;;;8.32;2.40;;;19.90;66.90;;;;;;5080182;28;20032;-86
2023/10/10 09:12:23;;;;;;;11.18;2.70;;;19.80;66.80;;;;;;5077883;28;20058;-84
2023/10/10 09:14:50;;;;;;;4.93;2.60;;;19.80;66.90;;;;;;5072149;28;20028;-81
2023/10/10 09:17:35;;;;;;;6.85;2.65;;;19.80;66.70;;;;;;5076847;28;20021;-81
2023/10/10 09:20:22;;;;;;;8.02;2.85;;;19.80;66.90;;;;;;5059778;28;20026;-86
2023/10/10 09:23:24;;;;;;;9.00;3.28;;;19.80;66.90;;;;;;5066588;28;20032;-83
2023/10/10 09:25:48;;;;;;;6.13;2.35;;;19.70;67.10;;;;;;5060445;28;20068;-82
2023/10/10 09:28:18;;;;;;;11.05;3.20;;;19.70;67.00;;;;;;5071499;28;20063;-84
2023/10/10 09:30:58;;;;;;;6.15;3.42;;;19.70;67.30;;;;;;5073222;28;20021;-81
2023/10/10 09:36:15;;;;;;;6.15;2.22;;;19.70;67.40;;;;;;5065902;28;20047;-86
2023/10/10 09:38:46;;;;;;;9.45;2.75;;;19.70;67.30;;;;;;5061861;28;20040;-81
2023/10/10 09:41:37;;;;;;;9.10;3.15;;;19.70;67.20;;;;;;5062285;28;20023;-83
2023/10/10 09:49:44;;;;;;;7.07;2.20;;;19.70;67.20;;;;;;5062688;28;20098;-81
2023/10/10 10:09:20;;;;;;;7.72;2.85;;;19.60;67.50;;;;;;5064104;28;20118;-84
2023/10/10 10:12:19;;;;;;;5.27;2.30;;;19.60;67.40;;;;;;5084110;28;20503;-82
2023/10/10 10:15:24;;;;;;;8.68;2.83;;;19.60;67.50;;;;;;5062575;28;20268;-81
2023/10/10 10:18:26;;;;;;;10.13;3.00;;;19.50;67.60;;;;;;5066101;28;20032;-86
2023/10/10 10:23:46;;;;;;;7.10;2.70;;;19.60;67.50;;;;;;5071566;28;20036;-86
2023/10/10 10:26:32;;;;;;;6.85;2.40;;;19.60;67.80;;;;;;5074532;28;20013;-86
2023/10/10 10:29:00;;;;;;;;;;;19.50;67.50;;;;;;5073037;28;20024;-82
2023/10/10 10:31:36;;;;;;;6.45;2.63;;;19.60;67.40;;;;;;5070804;28;19908;-82
2023/10/10 10:34:23;;;;;;;10.35;3.10;;;19.60;67.40;;;;;;5082404;28;20079;-82
2023/10/10 10:37:20;;;;;;;5.35;2.33;;;19.60;67.70;;;;;;5060221;28;20032;-81
2023/10/10 10:42:51;;;;;;;6.05;2.58;;;19.60;68.00;;;;;;5040106;28;20136;-84
2023/10/10 10:45:35;;;;;;;5.10;2.25;;;19.60;67.60;;;;;;5071041;28;20028;-82
2023/10/10 10:51:01;;;;;;;5.90;2.50;;;19.50;67.90;;;;;;5072985;28;20034;-86
2023/10/10 10:53:40;;;;;;;9.93;2.90;;;19.50;67.60;;;;;;5066501;28;20059;-87
2023/10/10 11:01:27;;;;;;;6.35;2.33;;;19.50;67.70;;;;;;5063805;28;20021;-87
2023/10/10 11:03:56;;;;;;;4.22;2.20;;;19.50;67.60;;;;;;5071564;28;20862;-82
2023/10/10 11:06:24;;;;;;;4.70;2.22;;;19.50;67.70;;;;;;5061629;28;20446;-85
2023/10/10 11:08:52;;;;;;;6.20;2.50;;;19.50;68.00;;;;;;5066920;28;20024;-86
2023/10/10 11:14:19;;;;;;;9.52;2.40;;;19.50;67.90;;;;;;5070906;28;20020;-85
2023/10/10 11:16:46;;;;;;;5.38;2.25;;;19.50;67.80;;;;;;5080348;28;20020;-79
2023/10/10 11:21:54;;;;;;;4.90;2.20;;;19.50;67.80;;;;;;5077865;28;20115;-82
2023/10/10 11:24:25;;;;;;;7.53;2.47;;;19.50;68.00;;;;;;5064762;28;20039;-87
2023/10/10 11:29:45;;;;;;;9.98;2.80;;;19.50;68.00;;;;;;5072627;28;20031;-81
2023/10/10 11:32:23;;;;;;;7.30;2.47;;;19.50;68.20;;;;;;5068010;28;20025;-81
2023/10/10 11:34:56;;;;;;;7.78;2.92;;;19.50;68.10;;;;;;5080518;28;20032;-86
2023/10/10 11:37:31;;;;;;;5.47;2.08;;;19.40;68.20;;;;;;5075740;28;20393;-81
2023/10/10 11:40:52;;;;;;;5.70;2.00;;;19.50;68.10;;;;;;5084107;28;20051;-83
2023/10/10 11:43:11;;;;;;;6.97;2.15;;;19.40;68.20;;;;;;5069516;28;20052;-86
2023/10/10 11:45:40;;;;;;;7.22;2.70;;;19.40;68.00;;;;;;5062038;28;20025;-86
2023/10/10 11:48:15;;;;;;;5.65;2.38;;;19.50;68.10;;;;;;5077958;28;20073;-83
2023/10/10 11:50:56;;;;;;;9.67;2.77;;;19.50;68.00;;;;;;5069499;28;20093;-80
2023/10/10 11:53:27;;;;;;;9.23;2.40;;;19.50;68.10;;;;;;5074412;28;20032;-81
2023/10/10 11:56:01;;;;;;;7.15;2.17;;;19.50;68.10;;;;;;5071265;28;20033;-82
2023/10/10 11:58:37;;;;;;;5.18;2.50;;;19.50;67.90;;;;;;5071730;28;20075;-84
2023/10/10 12:01:10;;;;;;;6.93;2.50;;;19.50;67.80;;;;;;5071584;28;20021;-82
2023/10/10 12:06:26;;;;;;;8.80;2.45;;;19.50;68.00;;;;;;5073179;28;20487;-81
2023/10/10 12:08:54;;;;;;;8.23;2.38;;;19.50;68.00;;;;;;5073251;28;20073;-81
2023/10/10 12:11:25;;;;;;;5.30;2.20;;;19.50;67.90;;;;;;5073130;28;20036;-88
2023/10/10 12:13:54;;;;;;;3.67;1.90;;;19.50;68.20;;;;;;5069498;28;20044;-84
2023/10/10 12:16:24;;;;;;;4.30;2.20;;;19.50;68.10;;;;;;5073148;28;20479;-82
2023/10/10 12:18:54;;;;;;;9.50;2.70;;;19.50;67.90;;;;;;5075029;28;20421;-80
2023/10/10 12:21:22;;;;;;;6.32;2.00;;;19.50;68.30;;;;;;5083833;28;20103;-81
2023/10/10 12:23:57;;;;;;;5.20;2.13;;;19.40;68.50;;;;;;5069441;28;20073;-84
2023/10/10 12:26:27;;;;;;;6.25;2.10;;;19.40;68.50;;;;;;5068543;28;20069;-83
2023/10/10 12:28:54;;;;;;;4.80;2.25;;;19.40;68.50;;;;;;5069137;28;20027;-88
2023/10/10 12:31:23;;;;;;;4.60;2.15;;;19.40;68.30;;;;;;5071199;28;20019;-88
2023/10/10 12:33:53;;;;;;;7.60;2.30;;;19.40;68.70;;;;;;5072194;28;20032;-88
2023/10/10 12:36:28;;;;;;;7.78;2.08;;;19.50;68.40;;;;;;5070943;28;20384;-80
2023/10/10 12:38:57;;;;;;;8.05;2.20;;;19.50;68.40;;;;;;5075361;28;20043;-84
2023/10/10 12:41:46;;;;;;;6.13;2.10;;;19.50;68.10;;;;;;5082531;28;20036;-83
2023/10/10 12:44:14;;;;;;;9.68;2.60;;;19.40;68.20;;;;;;5064179;28;20028;-84
2023/10/10 12:46:41;;;;;;;5.82;2.17;;;19.40;68.60;;;;;;5070672;28;20485;-87
2023/10/10 12:49:11;;;;;;;5.88;2.00;;;19.30;68.30;;;;;;5079916;28;20020;-89
2023/10/10 12:51:45;;;;;;;3.47;1.85;;;19.40;68.60;;;;;;5081776;28;20048;-82
2023/10/10 12:54:17;;;;;;;8.38;2.30;;;19.40;68.30;;;;;;5070566;28;20142;-80
2023/10/10 12:56:58;;;;;;;11.57;2.35;;;19.40;68.50;;;;;;5068341;28;20020;-81
2023/10/10 12:59:28;;;;;;;7.93;2.00;;;19.40;68.60;;;;;;5092675;28;20024;-81
2023/10/10 13:02:00;;;;;;;7.25;2.45;;;19.30;68.80;;;;;;5064240;28;20059;-88
2023/10/10 13:04:36;;;;;;;5.80;1.80;;;19.30;69.00;;;;;;5064714;28;20027;-81
2023/10/10 13:07:03;;;;;;;9.30;2.28;;;19.30;69.20;;;;;;5069303;28;20665;-81
2023/10/10 13:09:42;;;;;;;6.90;2.35;;;19.30;68.80;;;;;;5066779;28;20017;-80
2023/10/10 13:12:18;;;;;;;6.15;2.40;;;19.30;69.00;;;;;;5070099;28;20020;-80
2023/10/10 13:14:50;;;;;;;7.93;2.55;;;19.30;69.20;;;;;;5064055;28;20055;-80
2023/10/10 13:17:30;;;;;;;7.10;2.22;;;19.30;69.00;;;;;;5072605;28;20028;-81
2023/10/10 13:19:58;;;;;;;6.88;2.47;;;19.30;69.20;;;;;;5060183;28;20020;-81
2023/10/10 13:22:28;;;;;;;6.82;2.30;;;19.30;69.20;;;;;;5066972;28;20669;-80
2023/10/10 13:24:56;;;;;;;6.80;2.20;;;19.30;69.30;;;;;;5068359;28;20077;-80
2023/10/10 13:27:25;;;;;;;6.15;2.25;;;19.30;69.50;;;;;;5063422;28;20093;-81
2023/10/10 13:29:52;;;;;;;6.78;2.20;;;19.30;69.50;;;;;;5063090;28;20016;-81
2023/10/10 13:32:20;;;;;;;9.60;2.65;;;19.30;69.30;;;;;;5069006;28;20032;-81
2023/10/10 13:34:47;;;;;;;6.32;2.70;;;19.30;69.30;;;;;;5072475;28;20027;-82
2023/10/10 13:37:15;;;;;;;9.82;2.58;;;19.30;69.50;;;;;;5071907;28;20069;-83
2023/10/10 13:39:48;;;;;;;7.88;2.50;;;19.30;69.50;;;;;;5066021;28;20044;-82
2023/10/10 13:42:17;;;;;;;4.88;1.70;;;19.40;69.20;;;;;;5067208;28;20108;-82
2023/10/10 13:44:44;;;;;;;5.18;2.03;;;19.30;69.40;;;;;;5066606;28;20028;-80
2023/10/10 13:47:12;;;;;;;4.50;1.77;;;19.30;68.90;;;;;;5066228;28;20028;-80
2023/10/10 13:50:13;;;;;;;5.15;2.20;;;19.30;68.70;;;;;;5066943;28;20391;-82
2023/10/10 13:52:26;;;;;;;4.25;1.85;;;19.30;68.70;;;;;;5066781;28;20028;-79
2023/10/10 13:54:54;;;;;;;6.25;1.92;;;19.30;69.10;;;;;;5068544;28;20555;-85
2023/10/10 13:57:21;;;;;;;6.43;2.00;;;19.30;69.20;;;;;;5067038;28;20032;-83
2023/10/10 13:59:49;;;;;;;4.93;1.90;;;19.30;69.40;;;;;;5063975;28;20024;-80
2023/10/10 14:02:16;;;;;;;5.88;2.60;;;19.30;69.20;;;;;;5070747;28;20040;-87
2023/10/10 14:04:48;;;;;;;5.55;2.08;;;19.40;69.40;;;;;;5074175;28;20507;-82
2023/10/10 14:07:15;;;;;;;5.55;1.70;;;19.30;69.50;;;;;;5067993;28;20035;-83
2023/10/10 14:09:48;;;;;;;5.32;2.53;;;19.40;69.70;;;;;;5067888;28;20028;-80
2023/10/10 14:12:20;;;;;;;7.78;2.35;;;19.30;69.70;;;;;;5066535;28;20017;-83
2023/10/10 14:14:48;;;;;;;7.93;2.10;;;19.40;69.60;;;;;;5065456;28;20475;-80
2023/10/10 14:17:16;;;;;;;3.53;1.75;;;19.30;69.20;;;;;;5067279;28;20032;-80
2023/10/10 14:19:44;;;;;;;5.43;1.92;;;19.30;69.70;;;;;;5061363;28;20020;-79
2023/10/10 14:22:12;;;;;;;7.43;2.58;;;19.40;69.80;;;;;;5063604;28;20035;-79
2023/10/10 14:24:40;;;;;;;4.43;1.90;;;19.40;70.00;;;;;;5072792;28;20024;-81
2023/10/10 14:27:08;;;;;;;9.80;2.28;;;19.40;69.90;;;;;;5067871;28;20024;-82
2023/10/10 14:29:41;;;;;;;5.75;1.90;;;19.40;69.90;;;;;;5091157;28;20117;-80
2023/10/10 14:32:10;;;;;;;5.30;1.70;;;19.40;69.60;;;;;;5067230;28;20074;-80
2023/10/10 14:34:38;;;;;;;6.05;2.10;;;19.40;70.10;;;;;;5053487;28;20043;-80
2023/10/10 14:37:06;;;;;;;3.95;1.80;;;19.40;69.90;;;;;;5058488;28;20434;-85
2023/10/10 14:39:44;;;;;;;8.70;2.42;;;19.40;70.00;;;;;;5054482;28;20442;-79
2023/10/10 14:42:14;;;;;;;5.07;2.10;;;19.40;69.80;;;;;;5059116;28;20048;-80
2023/10/10 14:44:41;;;;;;;5.63;2.50;;;19.40;69.50;;;;;;5053494;28;20033;-80
2023/10/10 14:47:10;;;;;;;6.57;2.63;;;19.40;69.80;;;;;;5063472;28;20021;-80
2023/10/10 14:49:38;;;;;;;4.75;2.10;;;19.40;69.60;;;;;;5057464;28;20074;-80
2023/10/10 14:52:06;;;;;;;4.82;1.92;;;19.40;69.90;;;;;;5053442;28;20029;-81
2023/10/10 14:54:37;;;;;;;7.15;2.20;;;19.40;69.80;;;;;;5055177;28;20048;-82
2023/10/10 14:57:05;;;;;;;4.13;1.70;;;19.30;69.50;;;;;;5062322;28;20037;-80
2023/10/10 14:59:33;;;;;;;9.20;2.58;;;19.30;70.00;;;;;;5053388;28;20036;-80
2023/10/10 15:02:04;;;;;;;4.50;2.08;;;19.30;69.80;;;;;;5070277;28;20123;-80
2023/10/10 15:04:33;;;;;;;8.70;2.60;;;19.40;70.10;;;;;;5066305;28;20544;-80
2023/10/10 15:07:00;;;;;;;5.97;2.05;;;19.40;70.00;;;;;;5067264;28;20021;-79
2023/10/10 15:09:28;;;;;;;6.32;2.03;;;19.30;69.80;;;;;;5070935;28;20037;-81
2023/10/10 15:12:01;;;;;;;4.53;1.80;;;19.30;69.50;;;;;;5071229;28;20036;-80
2023/10/10 15:14:31;;;;;;;5.57;1.90;;;19.30;69.50;;;;;;5074871;28;20028;-80
2023/10/10 15:17:00;;;;;;;7.82;2.22;;;19.30;69.30;;;;;;5072329;28;20020;-83
2023/10/10 15:19:28;;;;;;;4.03;1.80;;;19.30;69.30;;;;;;5066725;28;20055;-80
2023/10/10 15:21:59;;;;;;;8.10;1.85;;;19.30;69.70;;;;;;5058104;28;20094;-80
2023/10/10 15:24:28;;;;;;;4.68;2.22;;;19.30;70.00;;;;;;5063043;28;20032;-81
2023/10/10 15:26:56;;;;;;;5.55;1.85;;;19.40;69.80;;;;;;5091567;28;20534;-80
2023/10/10 15:29:26;;;;;;;4.57;1.60;;;19.40;70.20;;;;;;5073094;28;20082;-79
2023/10/10 15:31:56;;;;;;;4.07;1.88;;;19.30;70.20;;;;;;5057220;28;20108;-79
2023/10/10 15:34:23;;;;;;;3.30;1.60;;;19.30;70.10;;;;;;5055449;28;20021;-80
2023/10/10 15:36:51;;;;;;;5.20;2.20;;;19.40;70.20;;;;;;5062131;28;20510;-81
2023/10/10 15:39:18;;;;;;;8.88;2.00;;;19.40;70.10;;;;;;5055214;28;20555;-81
2023/10/10 15:41:46;;;;;;;5.07;2.22;;;19.40;70.00;;;;;;5063148;28;20094;-80
2023/10/10 15:44:15;;;;;;;6.90;2.00;;;19.40;70.20;;;;;;5070237;28;20021;-82
2023/10/10 15:46:43;;;;;;;2.88;1.58;;;19.30;70.40;;;;;;5071310;28;20016;-82
2023/10/10 15:49:12;;;;;;;5.18;1.75;;;19.30;70.20;;;;;;5065926;28;20026;-81
2023/10/10 15:51:39;;;;;;;4.13;1.67;;;19.30;70.10;;;;;;5057825;28;20032;-84
2023/10/10 15:54:09;;;;;;;3.92;1.90;;;19.30;70.20;;;;;;5064302;28;20063;-79
2023/10/10 15:56:37;;;;;;;3.10;1.63;;;19.30;70.30;;;;;;5064700;28;20043;-81
2023/10/10 15:59:05;;;;;;;5.20;1.63;;;19.20;70.60;;;;;;5057366;28;20366;-82
2023/10/10 16:01:34;;;;;;;5.05;1.85;;;19.20;70.70;;;;;;5063966;28;20083;-80
2023/10/10 16:04:18;;;;;;;6.07;2.00;;;19.20;70.70;;;;;;5061668;28;20027;-80
2023/10/10 16:06:50;;;;;;;7.70;1.90;;;19.20;70.70;;;;;;5072965;28;20071;-81
2023/10/10 16:09:29;;;;;;;5.35;2.13;;;19.10;70.80;;;;;;5057713;28;20066;-80
2023/10/10 16:11:57;;;;;;;5.05;1.98;;;19.00;71.00;;;;;;5068991;28;20027;-85
2023/10/10 16:14:25;;;;;;;5.78;1.98;;;19.00;71.10;;;;;;5067239;28;20091;-83
2023/10/10 16:16:53;;;;;;;5.93;2.42;;;18.90;71.40;;;;;;5055472;28;20021;-80
2023/10/10 16:19:25;;;;;;;7.50;1.95;;;18.90;71.30;;;;;;5069883;28;20476;-80
2023/10/10 16:21:54;;;;;;;7.20;2.10;;;18.80;71.30;;;;;;5057145;28;20170;-81
2023/10/10 16:24:27;;;;;;;6.30;2.22;;;18.80;71.50;;;;;;5059302;28;20578;-81